TAF KAST
KAST 090530Z 0906/1006 32007KT P6SM VCSH SCT025 BKN035 BKN050 FM091300 27008KT 6SM -RA BKN025 OVC040 FM092000 29011G20KT P6SM -SHRA SCT020 BKN035 OVC050 FM100200 29007KT P6SM -SHRA SCT020 BKN040=
METAR KAST
WC KAST
WS KAST
WV KAST